createdAt,value
2023-06-29T00:00:47.781Z,19.04
2023-06-29T00:03:50.385Z,19.12
2023-06-29T00:06:54.129Z,19.14
2023-06-29T00:09:56.822Z,19.13
2023-06-29T00:12:59.127Z,19.02
2023-06-29T00:16:01.978Z,19.12
2023-06-29T00:19:04.456Z,19.01
2023-06-29T00:22:10.180Z,19.03
2023-06-29T00:25:12.814Z,19.09
2023-06-29T00:28:15.448Z,19.07
2023-06-29T00:31:19.971Z,18.96
2023-06-29T00:34:22.680Z,18.93
2023-06-29T00:37:25.256Z,18.87
2023-06-29T00:40:29.155Z,18.90
2023-06-29T00:43:32.228Z,18.85
2023-06-29T00:46:35.178Z,18.71
2023-06-29T00:49:37.603Z,18.70
2023-06-29T00:52:40.971Z,18.81
2023-06-29T00:55:43.707Z,18.68
2023-06-29T00:58:48.823Z,18.69
2023-06-29T01:01:52.904Z,18.81
2023-06-29T01:04:55.853Z,18.73
2023-06-29T01:08:06.179Z,18.82
2023-06-29T01:11:09.138Z,18.84
2023-06-29T01:14:15.012Z,18.84
2023-06-29T01:17:22.256Z,18.86
2023-06-29T01:20:27.384Z,18.88
2023-06-29T01:23:38.207Z,18.90
2023-06-29T01:26:41.205Z,18.89
2023-06-29T01:29:43.848Z,18.78
2023-06-29T01:32:46.422Z,18.77
2023-06-29T01:35:54.818Z,18.80
2023-06-29T01:39:07.528Z,18.91
2023-06-29T01:42:12.435Z,18.93
2023-06-29T01:45:15.648Z,18.92
2023-06-29T01:48:19.130Z,18.84
2023-06-29T01:51:22.983Z,18.94
2023-06-29T01:54:25.624Z,18.79
2023-06-29T01:57:29.200Z,18.79
2023-06-29T02:00:31.792Z,18.84
2023-06-29T02:03:34.680Z,18.82
2023-06-29T02:06:37.237Z,18.64
2023-06-29T02:09:40.782Z,18.69
2023-06-29T02:12:43.222Z,18.55
2023-06-29T02:15:46.206Z,18.62
2023-06-29T02:18:49.202Z,18.62
2023-06-29T02:21:51.791Z,18.48
2023-06-29T02:24:54.411Z,18.41
2023-06-29T02:27:56.772Z,18.52
2023-06-29T02:30:59.511Z,18.53
2023-06-29T02:34:02.074Z,18.46
2023-06-29T02:37:05.463Z,18.59
2023-06-29T02:40:08.626Z,18.49
2023-06-29T02:43:11.820Z,18.61
2023-06-29T02:46:14.202Z,18.52
2023-06-29T02:49:17.896Z,18.55
2023-06-29T02:52:20.567Z,18.60
2023-06-29T02:55:24.338Z,18.52
2023-06-29T02:58:26.725Z,18.54
2023-06-29T03:01:29.782Z,18.44
2023-06-29T03:04:32.681Z,18.44
2023-06-29T03:07:36.803Z,18.42
2023-06-29T03:10:39.355Z,18.33
2023-06-29T03:13:42.041Z,18.31
2023-06-29T03:16:44.471Z,18.15
2023-06-29T03:19:47.194Z,18.22
2023-06-29T03:22:49.535Z,18.23
2023-06-29T03:25:52.152Z,18.23
2023-06-29T03:28:54.487Z,18.25
2023-06-29T03:31:57.126Z,18.20
2023-06-29T03:34:59.467Z,18.34
2023-06-29T03:38:02.782Z,18.26
2023-06-29T03:41:05.219Z,18.40
2023-06-29T03:44:08.485Z,18.45
2023-06-29T03:47:10.861Z,18.50
2023-06-29T03:50:13.518Z,18.42
2023-06-29T03:53:15.892Z,18.56
2023-06-29T03:56:18.539Z,18.58
2023-06-29T03:59:21.015Z,18.66
2023-06-29T04:02:23.712Z,18.60
2023-06-29T04:05:28.339Z,18.70
2023-06-29T04:08:30.751Z,18.80
2023-06-29T04:11:33.600Z,18.75
2023-06-29T04:14:36.628Z,18.89
2023-06-29T04:17:39.545Z,18.84
2023-06-29T04:20:42.225Z,18.98
2023-06-29T04:23:44.883Z,19.00
2023-06-29T04:26:47.781Z,18.91
2023-06-29T04:29:50.645Z,19.03
2023-06-29T04:32:53.084Z,18.92
2023-06-29T04:35:56.286Z,19.08
2023-06-29T04:38:58.744Z,19.13
2023-06-29T04:42:05.531Z,19.07
2023-06-29T04:45:08.420Z,19.12
2023-06-29T04:48:11.694Z,19.12
2023-06-29T04:51:14.353Z,19.21
2023-06-29T04:54:17.068Z,19.21
2023-06-29T04:57:19.393Z,19.29
2023-06-29T05:00:22.219Z,19.26
2023-06-29T05:03:26.425Z,19.30
2023-06-29T05:06:29.164Z,19.46
2023-06-29T05:09:31.571Z,19.37
2023-06-29T05:12:34.461Z,19.52
2023-06-29T05:15:37.187Z,19.58
2023-06-29T05:18:39.841Z,19.66
2023-06-29T05:21:42.278Z,19.72
2023-06-29T05:24:45.427Z,19.79
2023-06-29T05:27:47.871Z,19.76
2023-06-29T05:30:50.532Z,19.81
2023-06-29T05:33:52.955Z,19.83
2023-06-29T05:36:56.456Z,19.86
2023-06-29T05:39:59.508Z,20.01
2023-06-29T05:43:02.162Z,20.09
2023-06-29T05:46:04.603Z,20.16
2023-06-29T05:49:07.281Z,20.11
2023-06-29T05:52:09.720Z,20.30
2023-06-29T05:55:12.383Z,20.32
2023-06-29T05:58:14.734Z,20.49
2023-06-29T06:01:17.522Z,20.46
2023-06-29T06:04:20.191Z,20.49
2023-06-29T06:07:29.693Z,20.71
2023-06-29T06:10:33.157Z,20.76
2023-06-29T06:13:35.472Z,20.95
2023-06-29T06:16:38.266Z,20.99
2023-06-29T06:19:40.692Z,21.06
2023-06-29T06:22:43.363Z,21.11
2023-06-29T06:25:45.946Z,21.27
2023-06-29T06:28:48.946Z,21.41
2023-06-29T06:31:51.323Z,21.49
2023-06-29T06:34:54.223Z,21.58
2023-06-29T06:37:56.966Z,21.70
2023-06-29T06:40:59.662Z,22.03
2023-06-29T06:44:02.018Z,22.20
2023-06-29T06:47:05.067Z,22.27
2023-06-29T06:50:07.882Z,22.34
2023-06-29T06:53:11.068Z,22.46
2023-06-29T06:56:13.903Z,22.62
2023-06-29T06:59:16.628Z,22.81
2023-06-29T07:02:19.136Z,22.87
2023-06-29T07:05:23.201Z,23.08
2023-06-29T07:08:25.636Z,23.39
2023-06-29T07:11:28.260Z,23.41
2023-06-29T07:14:30.646Z,23.67
2023-06-29T07:17:33.412Z,23.87
2023-06-29T07:26:46.720Z,24.12
2023-06-29T07:29:49.367Z,24.28
2023-06-29T07:32:53.221Z,24.56
2023-06-29T07:35:55.898Z,24.70
2023-06-29T07:38:58.382Z,24.79
2023-06-29T07:42:01.135Z,25.11
2023-06-29T07:45:05.218Z,25.16
2023-06-29T07:48:08.018Z,25.43
2023-06-29T07:51:11.492Z,25.67
2023-06-29T07:54:14.242Z,25.76
2023-06-29T08:00:23.325Z,26.12
2023-06-29T08:03:30.902Z,26.29
2023-06-29T08:09:40.323Z,26.45
2023-06-29T08:12:42.772Z,26.68
2023-06-29T08:15:45.442Z,27.01
2023-06-29T08:18:47.963Z,27.24
2023-06-29T08:21:56.572Z,27.41
2023-06-29T08:24:59.062Z,27.78
2023-06-29T08:28:01.778Z,27.92
2023-06-29T08:31:05.097Z,28.30
2023-06-29T08:34:10.198Z,28.31
2023-06-29T08:37:12.623Z,28.45
2023-06-29T08:40:19.898Z,28.90
2023-06-29T08:43:22.752Z,28.98
2023-06-29T08:46:26.136Z,29.00
2023-06-29T08:49:29.000Z,29.33
2023-06-29T08:52:35.595Z,29.36
2023-06-29T08:55:39.127Z,29.75
2023-06-29T08:58:43.302Z,29.28
2023-06-29T09:01:47.445Z,29.45
2023-06-29T09:04:50.634Z,29.56
2023-06-29T09:07:54.600Z,29.49
2023-06-29T09:10:57.697Z,29.78
2023-06-29T09:14:05.403Z,30.26
2023-06-29T09:17:13.992Z,30.16
2023-06-29T09:20:21.044Z,30.27
2023-06-29T09:23:27.036Z,29.72
2023-06-29T09:26:29.881Z,29.60
2023-06-29T09:29:39.156Z,29.62
2023-06-29T09:32:42.602Z,30.33
2023-06-29T09:35:51.340Z,31.06
2023-06-29T09:38:55.568Z,30.67
2023-06-29T09:41:58.401Z,29.96
2023-06-29T09:45:02.463Z,30.08
2023-06-29T09:51:10.677Z,29.33
2023-06-29T09:54:14.852Z,28.97
2023-06-29T09:57:18.513Z,28.81
2023-06-29T10:00:21.419Z,28.29
2023-06-29T10:03:24.504Z,28.51
2023-06-29T10:06:34.897Z,29.39
2023-06-29T10:09:41.580Z,29.52
2023-06-29T10:12:44.363Z,29.71
2023-06-29T10:15:47.708Z,29.61
2023-06-29T10:18:55.398Z,29.31
2023-06-29T10:22:06.697Z,28.96
2023-06-29T10:25:21.125Z,29.05
2023-06-29T10:28:24.595Z,29.73
2023-06-29T10:31:35.955Z,30.11
2023-06-29T10:35:01.016Z,29.92
2023-06-29T10:38:11.014Z,30.15
2023-06-29T10:41:27.796Z,31.14
2023-06-29T10:44:38.593Z,32.06
2023-06-29T10:47:42.168Z,31.84
2023-06-29T10:50:46.667Z,31.50
2023-06-29T10:53:50.286Z,31.26
2023-06-29T10:57:07.472Z,30.60
2023-06-29T11:00:10.738Z,30.62
2023-06-29T11:03:13.504Z,31.03
2023-06-29T11:09:38.414Z,31.53
2023-06-29T11:12:42.229Z,31.26
2023-06-29T11:15:51.990Z,31.28
2023-06-29T11:18:55.168Z,31.74
2023-06-29T11:21:59.513Z,32.19
2023-06-29T11:25:05.223Z,32.59
2023-06-29T11:28:07.949Z,32.93
2023-06-29T11:31:10.855Z,32.61
2023-06-29T11:34:16.317Z,32.15
2023-06-29T11:37:21.091Z,31.85
2023-06-29T11:40:25.332Z,31.10
2023-06-29T11:43:30.533Z,31.18
2023-06-29T11:46:36.757Z,30.56
2023-06-29T11:49:39.743Z,30.07
2023-06-29T11:52:44.789Z,29.65
2023-06-29T11:55:51.743Z,29.43
2023-06-29T11:58:54.203Z,29.19
2023-06-29T12:01:56.908Z,29.78
2023-06-29T12:05:03.982Z,29.51
2023-06-29T12:08:07.079Z,29.69
2023-06-29T12:11:17.207Z,29.92
2023-06-29T12:14:19.550Z,30.32
2023-06-29T12:20:27.775Z,31.28
2023-06-29T12:23:30.519Z,31.02
2023-06-29T12:26:33.397Z,31.27
2023-06-29T12:29:37.621Z,31.12
2023-06-29T12:32:40.692Z,31.16
2023-06-29T12:35:43.753Z,31.26
2023-06-29T12:38:48.998Z,31.31
2023-06-29T12:41:51.730Z,31.34
2023-06-29T12:44:54.274Z,31.40
2023-06-29T12:47:57.017Z,30.65
2023-06-29T12:51:01.195Z,30.85
2023-06-29T12:54:06.342Z,30.91
2023-06-29T12:57:08.774Z,30.76
2023-06-29T13:00:13.581Z,31.30
2023-06-29T13:03:16.424Z,31.31
2023-06-29T13:06:19.198Z,31.58
2023-06-29T13:09:21.651Z,31.47
2023-06-29T13:12:25.297Z,30.82
2023-06-29T13:15:27.743Z,30.91
2023-06-29T13:18:30.516Z,31.11
2023-06-29T13:21:33.553Z,31.29
2023-06-29T13:24:36.587Z,31.14
2023-06-29T13:27:40.825Z,30.94
2023-06-29T13:30:43.643Z,31.10
2023-06-29T13:33:47.237Z,31.18
2023-06-29T13:36:49.940Z,31.21
2023-06-29T13:39:53.240Z,31.33
2023-06-29T13:42:56.291Z,30.87
2023-06-29T13:45:58.793Z,30.92
2023-06-29T13:49:01.583Z,30.70
2023-06-29T13:52:04.373Z,30.82
2023-06-29T13:55:07.424Z,30.67
2023-06-29T13:58:10.656Z,30.72
2023-06-29T14:01:13.829Z,30.42
2023-06-29T14:04:17.396Z,30.04
2023-06-29T14:07:22.953Z,30.00
2023-06-29T14:10:26.185Z,29.97
2023-06-29T14:13:28.649Z,30.17
2023-06-29T14:16:31.567Z,30.24
2023-06-29T14:19:33.956Z,30.31
2023-06-29T14:22:36.676Z,30.07
2023-06-29T14:25:39.112Z,30.06
2023-06-29T14:28:42.108Z,30.14
2023-06-29T14:31:45.282Z,30.05
2023-06-29T14:34:49.579Z,30.08
2023-06-29T14:37:51.959Z,30.05
2023-06-29T14:40:55.360Z,30.01
2023-06-29T14:43:57.836Z,29.70
2023-06-29T14:47:00.884Z,29.74
2023-06-29T14:50:03.371Z,29.64
2023-06-29T14:53:06.214Z,29.59
2023-06-29T14:56:10.950Z,29.57
2023-06-29T14:59:13.716Z,29.54
2023-06-29T15:02:16.618Z,29.39
2023-06-29T15:05:19.519Z,29.43
2023-06-29T15:08:21.867Z,29.39
2023-06-29T15:11:24.743Z,29.25
2023-06-29T15:14:27.083Z,29.28
2023-06-29T15:17:30.642Z,29.18
2023-06-29T15:20:34.803Z,28.89
2023-06-29T15:23:37.619Z,28.71
2023-06-29T15:26:40.261Z,28.45
2023-06-29T15:29:42.946Z,28.20
2023-06-29T15:32:45.655Z,27.91
2023-06-29T15:35:49.133Z,27.64
2023-06-29T15:38:51.998Z,27.58
2023-06-29T15:41:54.773Z,27.39
2023-06-29T15:44:57.704Z,27.39
2023-06-29T15:48:00.443Z,27.35
2023-06-29T15:51:02.894Z,27.28
2023-06-29T15:54:05.589Z,27.10
2023-06-29T15:57:07.957Z,26.91
2023-06-29T16:00:11.204Z,26.86
2023-06-29T16:03:13.925Z,26.74
2023-06-29T16:06:16.754Z,26.70
2023-06-29T16:09:19.123Z,26.66
2023-06-29T16:12:21.787Z,26.67
2023-06-29T16:15:24.305Z,26.69
2023-06-29T16:18:26.985Z,26.73
2023-06-29T16:21:29.380Z,26.68
2023-06-29T16:24:32.031Z,26.78
2023-06-29T16:27:34.887Z,26.64
2023-06-29T16:30:37.626Z,26.69
2023-06-29T16:33:40.088Z,26.70
2023-06-29T16:36:42.883Z,26.68
2023-06-29T16:39:45.353Z,26.64
2023-06-29T16:42:48.046Z,26.49
2023-06-29T16:45:51.049Z,26.51
2023-06-29T16:48:57.686Z,26.41
2023-06-29T16:51:59.970Z,26.37
2023-06-29T16:55:02.702Z,26.26
2023-06-29T16:58:05.175Z,26.18
2023-06-29T17:01:07.819Z,26.16
2023-06-29T17:04:26.060Z,26.23
2023-06-29T17:07:30.518Z,26.20
2023-06-29T17:10:33.142Z,26.15
2023-06-29T17:13:39.031Z,26.10
2023-06-29T17:16:41.497Z,26.03
2023-06-29T17:19:50.169Z,25.93
2023-06-29T17:23:08.169Z,25.94
2023-06-29T17:26:17.322Z,25.90
2023-06-29T17:29:45.288Z,25.82
2023-06-29T17:37:59.706Z,25.74
2023-06-29T17:40:39.787Z,25.66
2023-06-29T17:43:44.095Z,25.61
2023-06-29T17:46:49.358Z,25.57
2023-06-29T17:49:53.011Z,25.51
2023-06-29T17:52:55.809Z,25.43
2023-06-29T17:55:58.367Z,25.41
2023-06-29T17:59:01.162Z,25.36
2023-06-29T18:02:03.934Z,25.29
2023-06-29T18:05:06.916Z,25.12
2023-06-29T18:08:09.307Z,25.20
2023-06-29T18:11:12.474Z,25.00
2023-06-29T18:14:15.335Z,25.08
2023-06-29T18:17:18.808Z,25.03
2023-06-29T18:20:25.322Z,24.98
2023-06-29T18:23:28.563Z,24.85
2023-06-29T18:26:31.316Z,24.89
2023-06-29T18:29:34.346Z,24.76
2023-06-29T18:32:39.204Z,24.72
2023-06-29T18:35:42.147Z,24.74
2023-06-29T18:38:46.322Z,24.69
2023-06-29T18:41:52.080Z,24.55
2023-06-29T18:44:54.591Z,24.57
2023-06-29T18:47:57.823Z,24.54
2023-06-29T18:51:00.384Z,24.50
2023-06-29T18:54:03.047Z,24.45
2023-06-29T18:57:09.744Z,24.42
2023-06-29T19:00:12.897Z,24.29
2023-06-29T19:03:15.365Z,24.24
2023-06-29T19:06:18.797Z,24.29
2023-06-29T19:09:21.482Z,24.16
2023-06-29T19:12:24.144Z,24.14
2023-06-29T19:15:26.486Z,24.05
2023-06-29T19:18:29.914Z,24.10
2023-06-29T19:21:47.055Z,24.04
2023-06-29T19:24:51.562Z,23.93
2023-06-29T19:27:55.881Z,23.96
2023-06-29T19:30:58.610Z,23.82
2023-06-29T19:34:03.210Z,23.88
2023-06-29T19:37:05.989Z,23.74
2023-06-29T19:40:09.733Z,23.71
2023-06-29T19:43:12.506Z,23.76
2023-06-29T19:46:16.274Z,23.72
2023-06-29T19:49:19.936Z,23.70
2023-06-29T19:52:22.328Z,23.54
2023-06-29T19:55:25.007Z,23.58
2023-06-29T19:58:27.993Z,23.42
2023-06-29T20:01:30.648Z,23.40
2023-06-29T20:04:33.507Z,23.37
2023-06-29T20:07:39.968Z,23.23
2023-06-29T20:10:42.728Z,23.40
2023-06-29T20:13:45.162Z,23.26
2023-06-29T20:16:47.949Z,23.21
2023-06-29T20:19:50.428Z,23.29
2023-06-29T20:22:54.447Z,23.22
2023-06-29T20:25:59.356Z,23.19
2023-06-29T20:29:02.095Z,23.12
2023-06-29T20:32:04.994Z,23.01
2023-06-29T20:35:08.204Z,22.96
2023-06-29T20:38:11.241Z,23.06
2023-06-29T20:41:13.869Z,23.01
2023-06-29T20:44:16.311Z,22.86
2023-06-29T20:47:19.909Z,22.91
2023-06-29T20:50:22.319Z,22.78
2023-06-29T20:53:25.046Z,22.73
2023-06-29T20:56:27.392Z,22.75
2023-06-29T20:59:32.083Z,22.63
2023-06-29T21:02:36.941Z,22.58
2023-06-29T21:05:41.296Z,22.61
2023-06-29T21:08:44.269Z,22.54
2023-06-29T21:11:47.138Z,22.60
2023-06-29T21:14:49.933Z,22.51
2023-06-29T21:17:54.883Z,22.56
2023-06-29T21:20:59.068Z,22.56
2023-06-29T21:24:01.920Z,22.46
2023-06-29T21:27:05.213Z,22.41
2023-06-29T21:30:08.009Z,22.31
2023-06-29T21:33:11.796Z,22.34
2023-06-29T21:36:15.016Z,22.24
2023-06-29T21:39:17.557Z,22.31
2023-06-29T21:42:20.241Z,22.31
2023-06-29T21:45:25.898Z,22.18
2023-06-29T21:48:28.748Z,22.23
2023-06-29T21:51:31.255Z,22.08
2023-06-29T21:54:33.903Z,22.14
2023-06-29T21:57:37.430Z,22.07
2023-06-29T22:00:40.077Z,22.08
2023-06-29T22:03:43.387Z,21.98
2023-06-29T22:06:45.836Z,22.07
2023-06-29T22:09:48.576Z,21.97
2023-06-29T22:12:51.441Z,21.97
2023-06-29T22:15:54.772Z,21.94
2023-06-29T22:18:57.148Z,21.89
2023-06-29T22:22:00.693Z,21.84
2023-06-29T22:25:03.206Z,21.78
2023-06-29T22:28:08.054Z,21.75
2023-06-29T22:31:10.592Z,21.87
2023-06-29T22:34:13.556Z,21.78
2023-06-29T22:37:15.919Z,21.73
2023-06-29T22:40:18.605Z,21.82
2023-06-29T22:43:20.941Z,21.73
2023-06-29T22:46:23.732Z,21.70
2023-06-29T22:49:26.184Z,21.80
2023-06-29T22:52:28.854Z,21.78
2023-06-29T22:55:31.228Z,21.59
2023-06-29T22:58:33.908Z,21.60
2023-06-29T23:01:37.468Z,21.55
2023-06-29T23:04:40.131Z,21.50
2023-06-29T23:07:45.606Z,21.52
2023-06-29T23:10:50.066Z,21.45
2023-06-29T23:13:52.432Z,21.40
2023-06-29T23:16:55.341Z,21.39
2023-06-29T23:19:58.336Z,21.40
2023-06-29T23:23:01.088Z,21.45
2023-06-29T23:26:03.534Z,21.32
2023-06-29T23:29:06.657Z,21.39
2023-06-29T23:32:09.184Z,21.29
2023-06-29T23:35:12.072Z,21.26
2023-06-29T23:38:14.378Z,21.29
2023-06-29T23:41:18.935Z,21.26
2023-06-29T23:44:21.314Z,21.15
2023-06-29T23:47:24.045Z,21.14
2023-06-29T23:50:26.486Z,21.24
2023-06-29T23:53:29.104Z,21.23
2023-06-29T23:56:31.481Z,21.10
2023-06-29T23:59:34.125Z,21.17
